Time;durP1;ratioP1;P1;durP2;ratioP2;P2;SDS_P1;SDS_P2;PMS_P1;PMS_P2;Temp;Humidity;BMP_temperature;BMP_pressure;BME280_temperature;BME280_humidity;BME280_pressure;Samples;Min_cycle;Max_cycle;Signal;HPM_P1;HPM_P2
2021/05/16 00:02:25;;;;;;;5.40;3.70;;;12.80;99.90;;;;;;5049045;28;20698;-73
2021/05/16 00:04:52;;;;;;;4.07;3.47;;;13.00;99.90;;;;;;5045166;28;20214;-73
2021/05/16 00:07:19;;;;;;;4.57;3.13;;;13.00;99.90;;;;;;5049732;28;20282;-75
2021/05/16 00:09:47;;;;;;;3.97;3.58;;;13.10;99.90;;;;;;5040256;28;20208;-75
2021/05/16 00:12:14;;;;;;;4.50;4.10;;;13.20;99.90;;;;;;5052083;28;20212;-73
2021/05/16 00:14:41;;;;;;;6.70;3.58;;;13.30;99.90;;;;;;5052093;28;20207;-72
2021/05/16 00:17:09;;;;;;;3.90;3.60;;;13.50;99.90;;;;;;5053906;28;20208;-72
2021/05/16 00:19:36;;;;;;;3.15;2.92;;;13.30;99.90;;;;;;5052070;28;20208;-73
2021/05/16 00:22:04;;;;;;;3.00;2.80;;;13.50;99.90;;;;;;5071436;28;20199;-74
2021/05/16 00:24:31;;;;;;;3.00;2.35;;;13.60;99.90;;;;;;5056925;28;20226;-74
2021/05/16 00:26:58;;;;;;;2.53;2.33;;;13.60;99.90;;;;;;5055858;28;20226;-74
2021/05/16 00:29:25;;;;;;;2.90;2.70;;;13.60;99.90;;;;;;5058280;28;20227;-73
2021/05/16 00:31:52;;;;;;;1.80;1.65;;;13.50;99.90;;;;;;5057766;28;20203;-73
2021/05/16 00:34:20;;;;;;;3.42;2.90;;;13.20;99.90;;;;;;5058618;28;20235;-72
2021/05/16 00:36:47;;;;;;;2.22;2.13;;;13.10;99.90;;;;;;5057040;28;20270;-72
2021/05/16 00:39:14;;;;;;;3.58;3.28;;;13.00;99.90;;;;;;5058204;28;20332;-73
2021/05/16 00:41:42;;;;;;;3.85;3.55;;;13.00;99.90;;;;;;5057533;28;20237;-72
2021/05/16 00:44:09;;;;;;;3.78;3.38;;;13.00;99.90;;;;;;5055580;28;20258;-74
2021/05/16 00:46:36;;;;;;;3.30;2.70;;;13.00;99.90;;;;;;5059069;28;20234;-73
2021/05/16 00:49:03;;;;;;;2.60;2.22;;;13.20;99.90;;;;;;5057733;28;20209;-73
2021/05/16 00:51:30;;;;;;;3.65;3.35;;;13.30;99.90;;;;;;5043167;28;20208;-73
2021/05/16 00:53:58;;;;;;;2.50;2.30;;;13.40;99.90;;;;;;5040131;28;20204;-73
2021/05/16 00:56:25;;;;;;;2.60;2.40;;;13.30;99.90;;;;;;5044831;28;20207;-73
2021/05/16 00:58:53;;;;;;;3.35;3.05;;;13.00;99.90;;;;;;5057393;28;20728;-71
2021/05/16 01:01:20;;;;;;;3.22;2.92;;;13.00;99.90;;;;;;5056937;28;20230;-72
2021/05/16 01:03:47;;;;;;;3.50;3.20;;;13.00;99.90;;;;;;5058043;28;20513;-72
2021/05/16 01:06:14;;;;;;;2.72;2.35;;;12.90;99.90;;;;;;5057364;28;20514;-73
2021/05/16 01:08:45;;;;;;;3.30;3.00;;;12.90;99.90;;;;;;5057289;28;20210;-74
2021/05/16 01:11:14;;;;;;;2.85;2.65;;;12.70;99.90;;;;;;5057800;28;20260;-75
2021/05/16 01:13:42;;;;;;;1.98;1.88;;;12.50;99.90;;;;;;5056837;28;20238;-75
2021/05/16 01:16:09;;;;;;;2.33;2.13;;;12.60;99.90;;;;;;5058136;28;20274;-73
2021/05/16 01:18:36;;;;;;;2.45;2.28;;;12.70;99.90;;;;;;5056308;28;20207;-75
2021/05/16 01:21:03;;;;;;;2.85;2.65;;;12.80;99.90;;;;;;5056683;28;20398;-74
2021/05/16 01:23:34;;;;;;;3.00;2.80;;;12.90;99.90;;;;;;5087098;28;20204;-74
2021/05/16 01:26:02;;;;;;;2.38;2.28;;;13.00;99.90;;;;;;5049091;28;20215;-72
2021/05/16 01:28:29;;;;;;;5.68;3.38;;;12.90;99.90;;;;;;5051647;28;20417;-73
2021/05/16 01:30:56;;;;;;;2.47;2.13;;;12.90;99.90;;;;;;5057109;28;20203;-73
2021/05/16 01:33:23;;;;;;;2.42;2.22;;;12.60;99.90;;;;;;5056346;28;20441;-71
2021/05/16 01:35:50;;;;;;;2.88;2.63;;;12.60;99.90;;;;;;5056674;28;20211;-70
2021/05/16 01:38:17;;;;;;;2.50;2.30;;;12.50;99.90;;;;;;5056550;28;20207;-73
2021/05/16 01:40:45;;;;;;;3.22;2.35;;;12.40;99.90;;;;;;5056983;28;20501;-72
2021/05/16 01:43:13;;;;;;;2.60;2.40;;;12.40;99.90;;;;;;5057449;28;20204;-73
2021/05/16 01:45:42;;;;;;;3.15;2.95;;;12.60;99.90;;;;;;5056760;28;20207;-72
2021/05/16 01:48:09;;;;;;;2.38;2.17;;;12.60;99.90;;;;;;5064402;28;20223;-73
2021/05/16 01:50:39;;;;;;;5.75;2.88;;;12.40;99.90;;;;;;5056503;28;20219;-72
2021/05/16 01:53:08;;;;;;;2.80;2.60;;;12.40;99.90;;;;;;5057002;28;20215;-73
2021/05/16 01:55:35;;;;;;;3.08;2.83;;;12.30;99.90;;;;;;5057828;28;20501;-71
2021/05/16 01:58:04;;;;;;;2.42;2.22;;;12.30;99.90;;;;;;5058523;28;20447;-71
2021/05/16 02:00:37;;;;;;;3.10;2.90;;;12.20;99.90;;;;;;5043774;28;20211;-71
2021/05/16 02:03:05;;;;;;;2.58;2.38;;;12.00;99.90;;;;;;5046647;28;20214;-71
2021/05/16 02:05:32;;;;;;;2.80;2.55;;;11.80;99.90;;;;;;5060755;28;20203;-71
2021/05/16 02:08:01;;;;;;;3.33;3.03;;;12.00;99.90;;;;;;5048264;28;20243;-70
2021/05/16 02:10:28;;;;;;;9.63;3.10;;;12.00;99.90;;;;;;5053959;28;20486;-69
2021/05/16 02:12:55;;;;;;;3.28;3.05;;;12.00;99.90;;;;;;5043315;28;20215;-70
2021/05/16 02:15:22;;;;;;;2.70;2.50;;;12.00;99.90;;;;;;5059651;28;20222;-70
2021/05/16 02:17:54;;;;;;;3.83;3.42;;;12.00;99.90;;;;;;5060620;28;20281;-71
2021/05/16 02:20:21;;;;;;;4.72;2.95;;;12.00;99.90;;;;;;5046920;28;20211;-70
2021/05/16 02:22:48;;;;;;;2.55;2.35;;;12.00;99.90;;;;;;5060859;28;20417;-71
2021/05/16 02:25:15;;;;;;;3.15;2.92;;;11.90;99.90;;;;;;5059613;28;20294;-71
2021/05/16 02:27:44;;;;;;;1.92;1.80;;;11.80;99.90;;;;;;5059902;28;20231;-69
2021/05/16 02:30:11;;;;;;;2.72;2.53;;;11.90;99.90;;;;;;5058128;28;20223;-69
2021/05/16 02:32:39;;;;;;;2.53;2.33;;;12.00;99.90;;;;;;5060439;28;20212;-69
2021/05/16 02:35:10;;;;;;;2.42;2.22;;;11.90;99.90;;;;;;5045425;28;20270;-70
2021/05/16 02:37:38;;;;;;;2.95;2.75;;;11.80;99.90;;;;;;5043352;28;20203;-70
2021/05/16 02:40:06;;;;;;;3.05;2.65;;;11.80;99.90;;;;;;5043501;28;20236;-69
2021/05/16 02:42:33;;;;;;;3.75;3.45;;;11.80;99.90;;;;;;5060377;28;20509;-68
2021/05/16 02:45:01;;;;;;;6.80;2.30;;;11.90;99.90;;;;;;5060354;28;20263;-70
2021/05/16 02:47:28;;;;;;;3.10;2.80;;;11.90;99.90;;;;;;5063020;28;20301;-69
2021/05/16 02:49:55;;;;;;;3.17;2.97;;;11.80;99.90;;;;;;5060054;28;20210;-68
2021/05/16 02:52:22;;;;;;;3.30;3.00;;;11.70;99.90;;;;;;5059666;28;20206;-70
2021/05/16 02:54:49;;;;;;;2.85;2.65;;;11.70;99.90;;;;;;5059030;28;20220;-69
2021/05/16 02:57:17;;;;;;;2.95;2.75;;;11.80;99.90;;;;;;5060265;28;20211;-68
2021/05/16 02:59:44;;;;;;;4.43;2.83;;;11.80;99.90;;;;;;5060182;28;20211;-70
2021/05/16 03:02:11;;;;;;;3.80;3.00;;;11.60;99.90;;;;;;5058936;28;20203;-68
2021/05/16 03:04:38;;;;;;;2.50;2.40;;;11.70;99.90;;;;;;5059191;28;20211;-68
2021/05/16 03:07:05;;;;;;;3.50;3.20;;;11.70;99.90;;;;;;5056479;28;20563;-68
2021/05/16 03:09:34;;;;;;;4.15;3.33;;;11.50;99.90;;;;;;5055562;28;20211;-68
2021/05/16 03:12:03;;;;;;;3.42;3.13;;;11.50;99.90;;;;;;5055543;28;20211;-68
2021/05/16 03:14:30;;;;;;;3.10;2.85;;;11.50;99.90;;;;;;5056003;28;20207;-69
2021/05/16 03:16:58;;;;;;;3.55;2.85;;;11.30;99.90;;;;;;5055251;28;20291;-68
2021/05/16 03:19:26;;;;;;;3.53;2.80;;;11.20;99.90;;;;;;5057563;28;20214;-68
2021/05/16 03:21:53;;;;;;;2.65;2.40;;;11.10;99.90;;;;;;5058953;28;20214;-69
2021/05/16 03:24:21;;;;;;;2.70;2.50;;;11.10;99.90;;;;;;5059472;28;20211;-67
2021/05/16 03:26:48;;;;;;;3.25;2.75;;;11.30;99.90;;;;;;5057206;28;21125;-68
2021/05/16 03:29:16;;;;;;;2.83;2.42;;;11.30;99.90;;;;;;5050290;28;20425;-68
2021/05/16 03:31:43;;;;;;;2.47;2.28;;;11.20;99.90;;;;;;5058198;28;20211;-69
2021/05/16 03:34:10;;;;;;;3.90;3.60;;;11.30;99.90;;;;;;5059528;28;20229;-68
2021/05/16 03:36:38;;;;;;;2.50;2.17;;;11.40;99.90;;;;;;5058861;28;20250;-68
2021/05/16 03:39:06;;;;;;;2.88;2.67;;;11.60;99.90;;;;;;5045683;28;20363;-67
2021/05/16 03:41:33;;;;;;;2.78;2.45;;;11.80;99.90;;;;;;5046129;28;20215;-68
2021/05/16 03:44:00;;;;;;;3.47;3.05;;;11.90;99.90;;;;;;5054195;28;20228;-69
2021/05/16 03:46:27;;;;;;;4.97;3.30;;;12.00;99.90;;;;;;5051181;28;20211;-68
2021/05/16 03:48:54;;;;;;;3.30;2.90;;;12.20;99.90;;;;;;5045153;28;20235;-68
2021/05/16 03:51:21;;;;;;;4.53;2.70;;;12.40;99.90;;;;;;5047363;28;20223;-68
2021/05/16 03:53:48;;;;;;;2.47;2.28;;;12.30;99.90;;;;;;5058743;28;20504;-69
2021/05/16 03:56:16;;;;;;;3.95;2.60;;;12.20;99.90;;;;;;5058589;28;20219;-69
2021/05/16 03:58:43;;;;;;;4.70;3.65;;;12.10;99.90;;;;;;5057763;28;20706;-69
2021/05/16 04:01:10;;;;;;;2.78;2.58;;;12.20;99.90;;;;;;5058165;28;20218;-69
2021/05/16 04:03:37;;;;;;;3.22;2.92;;;12.20;99.90;;;;;;5058789;28;20497;-68
2021/05/16 04:06:04;;;;;;;3.55;2.25;;;12.20;99.90;;;;;;5057998;28;20502;-69
2021/05/16 04:08:31;;;;;;;3.00;2.35;;;12.30;99.90;;;;;;5058287;28;20230;-68
2021/05/16 04:10:58;;;;;;;2.10;1.90;;;12.30;99.90;;;;;;5058718;28;20269;-67
2021/05/16 04:13:25;;;;;;;2.45;2.25;;;12.30;99.90;;;;;;5057706;28;20420;-69
2021/05/16 04:15:52;;;;;;;2.10;2.00;;;12.30;99.90;;;;;;5058690;28;20222;-68
2021/05/16 04:18:19;;;;;;;2.40;2.22;;;12.30;99.90;;;;;;5057743;28;20246;-69
2021/05/16 04:20:46;;;;;;;2.53;2.33;;;12.20;99.90;;;;;;5050668;28;20643;-67
2021/05/16 04:23:14;;;;;;;3.05;2.67;;;12.30;99.90;;;;;;5043451;28;20214;-68
2021/05/16 04:25:41;;;;;;;2.75;2.55;;;12.60;99.90;;;;;;5057835;28;20245;-68
2021/05/16 04:28:08;;;;;;;2.75;2.55;;;12.60;99.90;;;;;;5056423;28;20234;-68
2021/05/16 04:30:35;;;;;;;2.15;2.00;;;12.80;99.90;;;;;;5057786;28;20404;-69
2021/05/16 04:33:02;;;;;;;3.38;3.10;;;13.10;99.90;;;;;;5057682;28;20206;-68
2021/05/16 04:35:29;;;;;;;2.55;2.35;;;13.20;99.90;;;;;;5043319;28;20214;-68
2021/05/16 04:37:56;;;;;;;3.13;2.70;;;13.30;99.90;;;;;;5057810;28;20695;-65
2021/05/16 04:40:24;;;;;;;2.03;1.92;;;13.00;99.90;;;;;;5056451;28;20267;-67
2021/05/16 04:42:51;;;;;;;3.13;1.92;;;13.40;99.90;;;;;;5057711;28;20204;-66
2021/05/16 04:45:18;;;;;;;2.17;2.03;;;13.60;99.90;;;;;;5055720;28;20207;-66
2021/05/16 04:47:45;;;;;;;1.90;1.80;;;13.80;99.90;;;;;;5060886;28;20253;-68
2021/05/16 04:50:15;;;;;;;1.48;1.38;;;13.80;99.90;;;;;;5056436;28;20214;-67
2021/05/16 04:52:42;;;;;;;1.75;1.65;;;14.00;99.90;;;;;;5057671;28;20218;-66
2021/05/16 04:55:09;;;;;;;1.80;1.70;;;14.10;99.90;;;;;;5057617;28;20207;-65
2021/05/16 04:57:36;;;;;;;1.45;1.35;;;14.10;99.90;;;;;;5055906;28;20539;-67
2021/05/16 05:00:05;;;;;;;1.67;1.58;;;14.10;99.90;;;;;;5058205;28;20207;-66
2021/05/16 05:02:36;;;;;;;1.35;1.27;;;14.30;99.90;;;;;;5056765;28;20249;-66
2021/05/16 05:05:04;;;;;;;1.55;1.45;;;14.30;99.90;;;;;;5038295;28;20212;-68
2021/05/16 05:07:31;;;;;;;2.10;1.90;;;14.30;99.90;;;;;;5051323;28;20283;-67
2021/05/16 05:09:58;;;;;;;1.50;1.40;;;14.30;99.90;;;;;;5055582;28;20207;-68
2021/05/16 05:12:25;;;;;;;2.22;2.00;;;14.30;99.90;;;;;;5050412;28;20208;-67
2021/05/16 05:14:52;;;;;;;1.80;1.70;;;14.50;99.90;;;;;;5054581;28;20209;-66
2021/05/16 05:17:19;;;;;;;2.95;2.25;;;14.50;99.90;;;;;;5056785;28;20631;-66
2021/05/16 05:19:46;;;;;;;2.75;2.55;;;14.70;99.90;;;;;;5048862;28;20239;-67
2021/05/16 05:22:13;;;;;;;1.75;1.65;;;14.60;99.90;;;;;;5061893;28;20261;-66
2021/05/16 05:24:40;;;;;;;1.38;1.33;;;14.50;99.90;;;;;;5056855;28;20218;-67
2021/05/16 05:27:08;;;;;;;1.20;1.20;;;14.80;99.90;;;;;;5056794;28;20217;-65
2021/05/16 05:29:35;;;;;;;2.30;2.10;;;14.80;99.90;;;;;;5057860;28;20236;-66
2021/05/16 05:32:02;;;;;;;2.30;1.60;;;14.90;99.90;;;;;;5060830;28;20240;-66
2021/05/16 05:34:30;;;;;;;1.83;1.42;;;15.00;99.90;;;;;;5060816;28;20270;-65
2021/05/16 05:36:57;;;;;;;1.50;1.40;;;15.10;99.90;;;;;;5060755;28;20205;-65
2021/05/16 05:39:24;;;;;;;3.07;1.73;;;15.40;99.90;;;;;;5056289;28;20588;-66
2021/05/16 05:41:51;;;;;;;2.63;1.77;;;15.80;99.90;;;;;;5061658;28;20760;-65
2021/05/16 05:44:18;;;;;;;1.20;1.20;;;15.70;99.90;;;;;;5056753;28;20444;-64
2021/05/16 05:46:45;;;;;;;1.77;1.67;;;15.90;99.90;;;;;;5058971;28;20446;-65
2021/05/16 05:49:12;;;;;;;1.80;1.70;;;16.10;99.90;;;;;;5055785;28;20711;-66
2021/05/16 05:51:39;;;;;;;1.60;1.50;;;16.30;99.90;;;;;;5056615;28;20464;-67
2021/05/16 05:54:06;;;;;;;1.90;1.80;;;16.50;99.90;;;;;;5060737;28;20484;-64
2021/05/16 05:56:35;;;;;;;1.73;1.63;;;16.80;99.90;;;;;;5053262;28;20418;-64
2021/05/16 05:59:03;;;;;;;1.80;1.70;;;17.10;99.90;;;;;;5050816;28;20456;-65
2021/05/16 06:01:30;;;;;;;2.17;2.07;;;17.30;99.90;;;;;;5059419;28;20455;-65
2021/05/16 06:03:57;;;;;;;1.70;1.60;;;17.70;99.90;;;;;;5060841;28;20426;-64
2021/05/16 06:06:24;;;;;;;3.43;1.80;;;18.30;99.90;;;;;;5060092;28;20447;-65
2021/05/16 06:08:51;;;;;;;1.87;1.77;;;19.00;99.10;;;;;;5061115;28;20844;-64
2021/05/16 06:11:18;;;;;;;3.03;2.83;;;19.50;97.60;;;;;;5048801;28;20470;-65
2021/05/16 06:13:45;;;;;;;2.53;2.33;;;20.00;97.30;;;;;;5045867;28;20458;-65
2021/05/16 06:16:12;;;;;;;2.40;2.30;;;20.80;95.10;;;;;;5051368;28;20639;-64
2021/05/16 06:18:39;;;;;;;2.63;2.53;;;21.50;93.90;;;;;;5055981;28;20444;-66
2021/05/16 06:21:06;;;;;;;2.97;2.87;;;21.80;93.60;;;;;;5047439;28;20422;-63
2021/05/16 06:23:46;;;;;;;4.70;3.10;;;23.00;90.70;;;;;;5051367;28;20442;-65
2021/05/16 06:26:13;;;;;;;3.83;3.63;;;22.70;88.80;;;;;;5057586;28;20628;-65
2021/05/16 06:28:40;;;;;;;3.47;3.37;;;22.70;88.10;;;;;;5057454;28;20553;-64
2021/05/16 06:31:20;;;;;;;3.60;3.40;;;22.60;89.80;;;;;;5052245;28;20413;-65
2021/05/16 06:33:47;;;;;;;3.60;3.50;;;22.20;87.60;;;;;;5054666;28;20419;-65
2021/05/16 06:36:15;;;;;;;3.67;3.43;;;21.40;90.20;;;;;;5058397;28;20517;-66
2021/05/16 06:38:42;;;;;;;3.73;3.53;;;21.50;90.70;;;;;;5057300;28;20437;-66
2021/05/16 06:41:09;;;;;;;3.53;3.43;;;21.30;91.70;;;;;;5057394;28;20785;-65
2021/05/16 06:43:36;;;;;;;3.37;3.27;;;20.90;91.50;;;;;;5054561;28;20412;-65
2021/05/16 06:46:04;;;;;;;2.90;2.80;;;20.80;91.30;;;;;;5058134;28;20432;-64
2021/05/16 06:48:31;;;;;;;3.00;2.90;;;20.30;92.40;;;;;;5058865;28;20454;-65
2021/05/16 06:50:58;;;;;;;3.00;2.90;;;20.20;92.40;;;;;;5056495;28;20750;-65
2021/05/16 06:53:25;;;;;;;2.90;2.80;;;19.90;92.10;;;;;;5057963;28;20461;-65
2021/05/16 06:55:52;;;;;;;2.70;2.60;;;19.20;93.00;;;;;;5055847;28;20420;-65
2021/05/16 06:58:19;;;;;;;2.30;2.20;;;18.60;94.60;;;;;;5056137;28;20774;-66
2021/05/16 07:00:46;;;;;;;2.33;2.23;;;18.40;96.20;;;;;;5058920;28;20441;-66
2021/05/16 07:03:14;;;;;;;3.93;2.13;;;18.10;96.70;;;;;;5053614;28;20455;-65
2021/05/16 07:05:42;;;;;;;2.20;2.00;;;17.70;97.10;;;;;;5058694;28;20444;-66
2021/05/16 07:08:09;;;;;;;2.30;2.20;;;17.40;97.80;;;;;;5055548;28;20668;-65
2021/05/16 07:10:36;;;;;;;1.70;1.70;;;17.30;97.40;;;;;;5058191;28;20451;-65
2021/05/16 07:13:03;;;;;;;1.80;1.80;;;17.20;97.80;;;;;;5055378;28;20449;-66
2021/05/16 07:15:31;;;;;;;1.87;1.77;;;17.20;98.20;;;;;;5055728;28;20440;-66
2021/05/16 07:17:57;;;;;;;1.70;1.60;;;17.20;98.50;;;;;;5058314;28;20497;-65
2021/05/16 07:20:25;;;;;;;1.83;1.73;;;17.30;98.30;;;;;;5057678;28;20468;-65
2021/05/16 07:22:52;;;;;;;2.50;2.03;;;17.30;98.30;;;;;;5048018;28;20475;-66
2021/05/16 07:25:19;;;;;;;2.20;2.10;;;17.20;99.00;;;;;;5057775;28;20658;-65
2021/05/16 07:27:47;;;;;;;1.63;1.53;;;17.20;98.70;;;;;;5049326;28;20423;-66
2021/05/16 07:30:15;;;;;;;1.50;1.50;;;17.10;98.90;;;;;;5055148;28;20473;-66
2021/05/16 07:32:43;;;;;;;3.90;1.70;;;17.30;98.60;;;;;;5073737;28;20453;-65
2021/05/16 07:35:10;;;;;;;1.80;1.70;;;17.00;98.80;;;;;;5053032;28;20506;-66
2021/05/16 07:37:38;;;;;;;1.63;1.53;;;16.90;99.50;;;;;;5055760;28;20469;-66
2021/05/16 07:40:06;;;;;;;1.80;1.70;;;16.80;99.30;;;;;;5057069;28;20479;-66
2021/05/16 07:42:33;;;;;;;1.70;1.60;;;16.80;99.10;;;;;;5054093;28;20434;-65
2021/05/16 07:45:11;;;;;;;2.60;1.90;;;16.80;99.30;;;;;;5054951;28;20417;-64
2021/05/16 07:47:38;;;;;;;1.60;1.50;;;16.70;99.20;;;;;;5055035;28;20468;-66
2021/05/16 07:50:07;;;;;;;1.70;1.60;;;16.60;99.70;;;;;;5057748;28;20411;-65
2021/05/16 07:52:35;;;;;;;1.40;1.40;;;16.60;99.50;;;;;;5055715;28;20445;-66
2021/05/16 07:55:02;;;;;;;1.70;1.60;;;16.50;99.20;;;;;;5057334;28;20448;-66
2021/05/16 07:57:29;;;;;;;1.63;1.60;;;16.40;99.10;;;;;;5057455;28;20450;-66
2021/05/16 07:59:56;;;;;;;1.60;1.50;;;16.30;98.70;;;;;;5057619;28;20451;-66
2021/05/16 08:02:24;;;;;;;1.60;1.50;;;16.30;98.70;;;;;;5052274;28;20511;-66
2021/05/16 08:04:51;;;;;;;1.63;1.53;;;16.40;98.70;;;;;;5057208;28;20655;-66
2021/05/16 08:07:18;;;;;;;1.50;1.50;;;16.60;98.90;;;;;;5057533;28;20429;-67
2021/05/16 08:09:45;;;;;;;1.50;1.50;;;16.60;98.50;;;;;;5055753;28;20486;-67
2021/05/16 08:12:12;;;;;;;1.90;1.80;;;16.50;98.50;;;;;;5057352;28;20474;-65
2021/05/16 08:14:39;;;;;;;1.67;1.57;;;16.50;98.80;;;;;;5055516;28;20744;-65
2021/05/16 08:17:06;;;;;;;1.90;1.80;;;16.70;98.30;;;;;;5050655;28;20448;-65
2021/05/16 08:19:34;;;;;;;2.43;2.30;;;16.90;97.10;;;;;;5046822;28;20451;-65
2021/05/16 08:22:01;;;;;;;1.83;1.73;;;16.50;97.40;;;;;;5053873;28;20705;-65
2021/05/16 08:24:32;;;;;;;1.40;1.40;;;16.70;97.60;;;;;;5056833;28;20456;-65
2021/05/16 08:26:59;;;;;;;1.90;1.80;;;17.00;97.30;;;;;;5055156;28;20449;-65
2021/05/16 08:29:27;;;;;;;2.53;2.33;;;17.20;95.70;;;;;;5048152;28;20537;-66
2021/05/16 08:31:54;;;;;;;2.13;2.03;;;17.50;96.10;;;;;;5055476;28;20453;-66
2021/05/16 08:34:22;;;;;;;2.27;2.17;;;17.60;96.20;;;;;;5056612;28;20828;-66
2021/05/16 08:36:49;;;;;;;1.93;1.83;;;17.40;96.30;;;;;;5057333;28;20627;-65
2021/05/16 08:39:16;;;;;;;1.53;1.53;;;17.40;96.60;;;;;;5056061;28;20476;-67
2021/05/16 08:41:44;;;;;;;2.10;2.00;;;17.30;96.30;;;;;;5051052;28;20502;-65
2021/05/16 08:44:12;;;;;;;2.10;2.00;;;17.20;95.60;;;;;;5055284;28;20442;-65
2021/05/16 08:46:39;;;;;;;1.70;1.70;;;17.10;95.90;;;;;;5055766;28;20891;-66
2021/05/16 08:49:06;;;;;;;2.50;2.40;;;17.20;96.40;;;;;;5056472;28;20711;-67
2021/05/16 08:51:34;;;;;;;2.10;2.00;;;17.30;96.20;;;;;;5053920;28;20437;-65
2021/05/16 08:54:02;;;;;;;2.00;1.90;;;17.50;96.80;;;;;;5054958;28;20450;-66
2021/05/16 08:56:29;;;;;;;2.00;1.90;;;17.70;96.40;;;;;;5055156;28;20436;-66
2021/05/16 08:58:56;;;;;;;2.50;2.33;;;17.80;95.90;;;;;;5056127;28;20447;-64
2021/05/16 09:01:25;;;;;;;2.83;2.63;;;17.90;96.10;;;;;;5056468;28;20636;-66
2021/05/16 09:03:53;;;;;;;2.30;2.20;;;17.70;96.10;;;;;;5044911;28;20428;-66
2021/05/16 09:06:34;;;;;;;2.23;2.13;;;17.80;96.30;;;;;;5046644;28;20462;-65
2021/05/16 09:09:26;;;;;;;2.00;1.90;;;17.50;96.80;;;;;;5049168;28;20471;-66
2021/05/16 09:11:59;;;;;;;2.73;2.07;;;17.40;97.10;;;;;;5040569;28;20746;-65
2021/05/16 09:14:43;;;;;;;1.87;1.80;;;17.50;96.80;;;;;;5040442;28;20495;-66
2021/05/16 09:17:30;;;;;;;2.40;2.20;;;17.80;96.60;;;;;;5055267;28;20442;-65
2021/05/16 09:19:58;;;;;;;1.33;1.33;;;17.70;95.90;;;;;;5047031;28;20414;-66
2021/05/16 09:22:47;;;;;;;2.93;1.90;;;17.70;95.90;;;;;;5057095;28;20441;-66
2021/05/16 09:25:18;;;;;;;1.60;1.60;;;17.80;95.80;;;;;;5057060;28;20502;-66
2021/05/16 09:27:50;;;;;;;2.17;2.07;;;17.70;95.50;;;;;;5058007;28;20447;-65
2021/05/16 09:30:18;;;;;;;2.17;2.07;;;17.80;95.80;;;;;;5043383;28;20654;-66
2021/05/16 09:33:07;;;;;;;3.40;2.60;;;18.10;95.00;;;;;;5056675;28;20414;-66
2021/05/16 09:35:40;;;;;;;2.63;2.43;;;18.30;95.20;;;;;;5057262;28;20532;-66
2021/05/16 09:38:08;;;;;;;3.10;2.90;;;18.50;95.10;;;;;;5056846;28;20439;-66
2021/05/16 09:40:44;;;;;;;1.90;1.90;;;18.50;94.90;;;;;;5054275;28;20439;-66
2021/05/16 09:43:16;;;;;;;2.10;2.10;;;18.40;94.20;;;;;;5053126;28;20425;-66
2021/05/16 09:45:53;;;;;;;2.70;2.60;;;18.30;95.10;;;;;;5053323;28;20447;-66
2021/05/16 09:48:28;;;;;;;2.80;2.60;;;18.40;95.20;;;;;;5058090;28;20444;-66
2021/05/16 09:51:17;;;;;;;2.90;2.80;;;18.50;94.80;;;;;;5049729;28;20750;-65
2021/05/16 09:53:53;;;;;;;3.17;3.07;;;18.80;94.10;;;;;;5060935;28;20662;-66
2021/05/16 09:56:27;;;;;;;2.60;2.50;;;19.00;93.60;;;;;;5061534;28;20454;-65
2021/05/16 09:58:57;;;;;;;2.50;2.40;;;18.80;94.00;;;;;;5055250;28;20452;-67
2021/05/16 10:01:25;;;;;;;3.20;3.00;;;19.10;93.20;;;;;;5054905;28;20475;-66
2021/05/16 10:03:54;;;;;;;2.80;2.70;;;19.40;92.80;;;;;;5055123;28;20691;-66
2021/05/16 10:06:22;;;;;;;5.60;2.80;;;19.70;92.70;;;;;;5055985;28;20419;-66
2021/05/16 10:08:50;;;;;;;3.33;3.23;;;20.40;91.70;;;;;;5055405;28;20459;-66
2021/05/16 10:11:19;;;;;;;3.10;3.00;;;20.10;91.70;;;;;;5055577;28;20517;-65
2021/05/16 10:13:52;;;;;;;3.70;3.50;;;20.40;91.60;;;;;;5056272;28;20419;-65
2021/05/16 10:16:21;;;;;;;3.40;3.30;;;20.60;91.20;;;;;;5047210;28;20457;-66
2021/05/16 10:18:50;;;;;;;3.97;3.80;;;21.00;88.50;;;;;;5058571;28;20422;-67
2021/05/16 10:21:23;;;;;;;3.93;3.73;;;21.20;88.50;;;;;;5056979;28;20455;-67
2021/05/16 10:24:10;;;;;;;3.30;3.20;;;20.80;87.00;;;;;;5059448;28;20444;-66
2021/05/16 10:26:38;;;;;;;3.40;3.30;;;21.10;87.60;;;;;;5060287;28;20448;-66
2021/05/16 10:29:10;;;;;;;3.70;3.50;;;21.20;85.80;;;;;;5058299;28;20466;-67
2021/05/16 10:31:54;;;;;;;3.77;3.63;;;21.00;88.10;;;;;;5057711;28;20408;-67
2021/05/16 10:34:28;;;;;;;3.80;3.60;;;21.10;86.10;;;;;;5049621;28;20438;-67
2021/05/16 10:36:56;;;;;;;3.83;3.73;;;21.70;83.90;;;;;;5055283;28;20419;-67
2021/05/16 10:39:39;;;;;;;4.43;4.03;;;21.50;83.50;;;;;;5088251;28;20447;-67
2021/05/16 10:42:17;;;;;;;3.23;3.13;;;21.60;79.50;;;;;;5058740;28;20460;-66
2021/05/16 10:45:21;;;;;;;4.10;4.00;;;21.40;79.80;;;;;;5056882;28;20427;-66
2021/05/16 10:47:52;;;;;;;3.70;3.60;;;21.00;81.00;;;;;;5058418;28;20407;-66
2021/05/16 10:50:19;;;;;;;3.50;3.40;;;20.10;80.70;;;;;;5057253;28;20490;-68
2021/05/16 10:53:00;;;;;;;3.63;3.53;;;19.60;82.80;;;;;;5054028;28;20499;-66
2021/05/16 10:55:28;;;;;;;3.33;3.23;;;19.10;83.80;;;;;;5056684;28;20815;-68
2021/05/16 10:57:56;;;;;;;3.20;3.10;;;18.90;88.00;;;;;;5055985;28;20766;-66
2021/05/16 11:00:29;;;;;;;3.20;3.10;;;19.00;88.10;;;;;;5058042;28;20423;-67
2021/05/16 11:03:13;;;;;;;3.40;3.30;;;19.20;83.40;;;;;;5058386;28;20517;-66
2021/05/16 11:05:40;;;;;;;3.47;3.27;;;19.60;82.70;;;;;;5056005;28;20418;-68
2021/05/16 11:08:09;;;;;;;3.40;3.30;;;20.00;82.80;;;;;;5053772;28;20418;-67
2021/05/16 11:10:38;;;;;;;4.60;3.70;;;20.30;84.10;;;;;;5057034;28;20474;-67
2021/05/16 11:13:28;;;;;;;3.50;3.40;;;20.50;84.00;;;;;;5056817;28;20447;-66
2021/05/16 11:15:57;;;;;;;4.10;3.80;;;20.60;82.30;;;;;;5055882;28;20492;-67
2021/05/16 11:18:25;;;;;;;3.57;3.47;;;20.80;80.00;;;;;;5056807;28;20487;-67
2021/05/16 11:20:57;;;;;;;3.50;3.40;;;20.70;81.50;;;;;;5056453;28;20419;-66
2021/05/16 11:23:25;;;;;;;3.53;3.43;;;20.50;80.90;;;;;;5058388;28;20446;-66
2021/05/16 11:26:00;;;;;;;3.10;3.00;;;20.20;80.60;;;;;;5058254;28;20466;-66
2021/05/16 11:28:30;;;;;;;3.73;3.63;;;19.50;82.20;;;;;;5054862;28;20470;-65
2021/05/16 11:30:59;;;;;;;3.27;3.17;;;19.50;81.40;;;;;;5058335;28;20767;-66
2021/05/16 11:33:33;;;;;;;3.63;3.53;;;19.70;84.20;;;;;;5056733;28;20415;-66
2021/05/16 11:36:08;;;;;;;4.00;3.60;;;19.90;84.30;;;;;;5056189;28;20415;-66
2021/05/16 11:38:41;;;;;;;3.40;3.30;;;20.30;82.10;;;;;;5054944;28;21015;-66
2021/05/16 11:41:25;;;;;;;3.60;3.50;;;20.60;79.50;;;;;;5058057;28;20480;-64
2021/05/16 11:43:53;;;;;;;3.83;3.73;;;20.70;80.30;;;;;;5052527;28;20451;-66
2021/05/16 11:46:30;;;;;;;3.50;3.40;;;20.50;82.10;;;;;;5057229;28;20447;-66
2021/05/16 11:48:58;;;;;;;3.40;3.30;;;20.50;81.60;;;;;;5051922;28;20697;-66
2021/05/16 11:51:25;;;;;;;3.80;3.70;;;20.70;82.90;;;;;;5057649;28;20441;-65
2021/05/16 11:53:58;;;;;;;3.77;3.57;;;21.00;80.20;;;;;;5057220;28;20773;-65
2021/05/16 11:56:28;;;;;;;3.50;3.40;;;21.40;76.90;;;;;;5058703;28;20446;-66
2021/05/16 11:58:59;;;;;;;3.77;3.67;;;21.70;73.50;;;;;;5058339;28;20459;-65
2021/05/16 12:01:28;;;;;;;3.30;3.20;;;21.10;75.80;;;;;;5055273;28;20417;-65
2021/05/16 12:04:00;;;;;;;4.00;3.87;;;21.50;77.10;;;;;;5056324;28;20425;-65
2021/05/16 12:06:31;;;;;;;3.97;3.67;;;21.70;77.40;;;;;;5056687;28;20419;-64
2021/05/16 12:09:01;;;;;;;4.10;4.00;;;22.40;75.00;;;;;;5056299;28;20452;-65
2021/05/16 12:11:29;;;;;;;4.10;4.00;;;22.70;73.30;;;;;;5056421;28;20489;-65
2021/05/16 12:14:26;;;;;;;4.13;3.83;;;22.90;73.70;;;;;;5057866;28;20498;-65
2021/05/16 12:16:56;;;;;;;3.40;3.30;;;22.40;74.70;;;;;;5052681;28;20427;-65
2021/05/16 12:19:40;;;;;;;4.13;4.03;;;22.10;74.90;;;;;;5053563;28;20451;-65
2021/05/16 12:22:09;;;;;;;4.27;4.07;;;21.90;77.40;;;;;;5054116;28;20443;-66
2021/05/16 12:24:43;;;;;;;4.40;4.20;;;21.90;78.00;;;;;;5056504;28;20497;-65
2021/05/16 12:27:12;;;;;;;3.87;3.77;;;21.90;76.50;;;;;;5058291;28;20458;-64
2021/05/16 12:29:40;;;;;;;3.70;3.60;;;22.20;76.50;;;;;;5052957;28;20495;-65
2021/05/16 12:32:11;;;;;;;3.40;3.30;;;22.20;75.70;;;;;;5056432;28;20486;-64
2021/05/16 12:34:41;;;;;;;3.90;3.80;;;22.10;75.50;;;;;;5057215;28;20763;-65
2021/05/16 12:37:17;;;;;;;4.10;4.00;;;22.00;76.90;;;;;;5058072;28;20760;-65
2021/05/16 12:39:49;;;;;;;4.37;4.17;;;21.60;81.10;;;;;;5057400;28;20436;-64
2021/05/16 12:42:42;;;;;;;3.97;3.83;;;21.50;79.90;;;;;;5057121;28;20481;-64
2021/05/16 12:45:15;;;;;;;3.97;3.87;;;21.60;81.20;;;;;;5044790;28;20414;-65
2021/05/16 12:48:04;;;;;;;3.57;3.47;;;21.80;78.80;;;;;;5051567;28;20417;-65
2021/05/16 12:50:51;;;;;;;3.57;3.47;;;21.90;75.60;;;;;;5054761;28;20697;-65
2021/05/16 12:53:23;;;;;;;4.10;4.00;;;22.00;75.60;;;;;;5056979;28;20425;-65
2021/05/16 12:56:17;;;;;;;4.80;4.57;;;22.00;76.10;;;;;;5060754;28;20476;-66
2021/05/16 13:01:24;;;;;;;4.03;3.73;;;22.20;74.30;;;;;;5054330;28;20516;-65
2021/05/16 13:04:03;;;;;;;4.03;3.93;;;21.80;73.80;;;;;;5051241;28;20604;-67